• Join FlightAware (Why Join?)
  • Login
  • US Flag 
05:54AM EDT


 

Airport Tracker/Info


-or-


 

Live Flight TrackerFlight Track Log ✈ SWA1533 ✈ 12-Apr-2013 ✈ KBWI - KPHX

Flight Track Log - Related Links

Times and Time Zones

All times are in EDT time to prevent confusion due to time zone crossing. See the SWA1533 flight status page for this flight to view local times or setup timezone preferences in your user account.

Time Position Orientation Groundspeed Altitude Reporting Facility
EDT Latitude Longitude Course Direction KTS MPH feet Rate Location/Type
09:37PM 39.1500 -76.6500 237° Southwest 166 191 1,000  Level Potomac TRACON
09:38PM 39.1333 -76.6833 237° Southwest 216 249 2,800 1,800 Climbing Potomac TRACON
09:39PM 39.1500 -76.7333 293° West 232 267 4,700 2,460 Climbing Potomac TRACON
09:40PM 39.1833 -76.8167 297° West 278 320 7,500 3,480 Climbing Potomac TRACON
09:41PM 39.2167 -76.9000 297° West 266 306 11,700 3,000 Climbing Potomac TRACON
09:44PM 39.2894 -77.1119 294° West 284 327 17,300 2,340 Climbing Washington Center
09:45PM 39.3297 -77.2256 295° West 308 354 19,400 1,920 Climbing Washington Center
09:46PM 39.3717 -77.3500 294° West 340 391 21,200 2,100 Climbing Washington Center
09:47PM 39.4156 -77.4772 294° West 361 415 23,700 2,580 Climbing Washington Center
09:48PM 39.4633 -77.6103 295° West 383 441 26,400 2,160 Climbing Washington Center
09:49PM 39.5181 -77.7953 291° West 371 427 29,300 1,800 Climbing Cleveland Center
09:50PM 39.5567 -77.9228 291° West 376 433 31,100 1,740 Climbing Cleveland Center
09:51PM 39.5928 -78.0481 291° West 376 433 32,800 1,740 Climbing Cleveland Center
09:52PM 39.6311 -78.1733 292° West 376 433 34,600 1,320 Climbing Cleveland Center
09:53PM 39.6669 -78.2961 291° West 370 426 35,500 900 Climbing Cleveland Center
09:54PM 39.7047 -78.4192 292° West 370 426 36,400 1,080 Climbing Cleveland Center
09:55PM 39.7403 -78.5447 290° West 370 426 37,700 780 Climbing Cleveland Center
09:56PM 39.7781 -78.6678 292° West 365 420 38,000 120 Climbing Cleveland Center
09:57PM 39.8092 -78.7914 288° West 365 420 38,000  Level Cleveland Center
09:58PM 39.8486 -78.9147 293° West 365 420 38,000  Level Cleveland Center
09:59PM 39.9150 -79.0456 304° West 378 435 38,000  Level Cleveland Center
10:00PM 39.9708 -79.1636 302° West 384 442 38,000  Level Cleveland Center
10:01PM 40.0306 -79.2817 303° West 389 448 38,000  Level Cleveland Center
10:02PM 40.0861 -79.4000 302° West 389 448 38,000  Level Cleveland Center
10:03PM 40.1456 -79.5211 303° West 389 448 38,000  Level Cleveland Center
10:04PM 40.2008 -79.6372 302° West 384 442 38,000  Level Cleveland Center
10:05PM 40.2603 -79.7614 302° West 384 442 38,000  Level Cleveland Center
10:06PM 40.3153 -79.8806 301° West 384 442 38,000  Level Cleveland Center
10:07PM 40.3722 -80.0025 302° West 384 442 38,000  Level Cleveland Center
10:08PM 40.4206 -80.1086 301° West 384 442 38,000  Level Cleveland Center
10:09PM 40.4772 -80.2311 301° West 389 448 38,000  Level Cleveland Center
10:10PM 40.5358 -80.3508 303° West 389 448 38,000  Level Cleveland Center
10:11PM 40.5925 -80.4656 303° West 383 441 38,000  Level Cleveland Center
10:12PM 40.6531 -80.6022 300° West 383 441 38,000  Level Cleveland Center
10:13PM 40.7050 -80.7092 303° West 388 447 38,000  Level Cleveland Center
10:14PM 40.7611 -80.8297 302° West 388 447 38,000  Level Cleveland Center
10:15PM 40.8169 -80.9508 301° West 383 441 38,000  Level Cleveland Center
10:16PM 40.8708 -81.0800 299° West 383 441 38,000  Level Cleveland Center
10:17PM 40.9286 -81.2014 302° West 393 452 38,000  Level Cleveland Center
10:18PM 40.9842 -81.3258 301° West 393 452 38,000  Level Cleveland Center
10:19PM 41.0456 -81.4669 300° West 399 459 38,000  Level Cleveland Center
10:20PM 41.1028 -81.5917 301° West 399 459 38,000  Level Cleveland Center
10:21PM 41.1581 -81.7056 303° West 404 465 38,000  Level Cleveland Center
10:22PM 41.2131 -81.8364 299° West 404 465 38,000  Level Cleveland Center
10:23PM 41.2719 -81.9644 301° West 409 471 38,000  Level Cleveland Center
10:24PM 41.3308 -82.0958 301° West 409 471 38,000  Level Cleveland Center
10:25PM 41.3917 -82.2272 302° West 415 478 38,000  Level Cleveland Center
10:26PM 41.4606 -82.3536 306° West 421 484 38,000  Level Cleveland Center
10:27PM 41.5272 -82.4803 305° West 421 484 38,000  Level Cleveland Center
10:28PM 41.6019 -82.6186 306° West 421 484 38,000  Level Cleveland Center
10:29PM 41.6686 -82.7403 306° West 421 484 38,000  Level Cleveland Center
10:30PM 41.7350 -82.8678 305° West 421 484 38,000  Level Cleveland Center
10:31PM 41.8011 -82.9925 305° West 421 484 38,000  Level Cleveland Center
10:32PM 41.8672 -83.1206 305° West 421 484 38,000  Level Cleveland Center
10:33PM 41.9353 -83.2489 306° West 421 484 38,000  Level Cleveland Center
10:34PM 42.0011 -83.3747 305° West 421 484 38,000  Level Cleveland Center
10:35PM 42.0539 -83.5111 298° West 416 479 38,000  Level Cleveland Center
10:36PM 42.0625 -83.6569 275° West 401 461 38,000  Level Cleveland Center
10:37PM 42.0483 -83.8017 263° West 387 445 38,000  Level Cleveland Center
10:39PM 42.0658 -84.0572 275° West 401 461 38,000  Level Chicago Center
10:40PM 42.0767 -84.2058 276° West 400 460 38,000  Level Chicago Center
10:41PM 42.0894 -84.3542 277° West 398 458 38,000  Level Chicago Center
10:42PM 42.1014 -84.5314 275° West 398 458 38,000  Level Chicago Center
10:43PM 42.1122 -84.6797 276° West 399 459 38,000  Level Chicago Center
10:44PM 42.1233 -84.8253 276° West 395 455 38,000  Level Chicago Center
10:45PM 42.1344 -84.9717 276° West 394 453 38,000  Level Chicago Center
10:46PM 42.1447 -85.1194 275° West 394 453 38,000  Level Chicago Center
10:47PM 42.1561 -85.2675 276° West 397 457 38,000  Level Chicago Center
10:48PM 42.1661 -85.4156 275° West 398 458 38,000  Level Chicago Center
10:49PM 42.1767 -85.5653 275° West 402 463 38,000  Level Chicago Center
10:50PM 42.1864 -85.7169 275° West 404 465 38,000  Level Chicago Center
10:51PM 42.1956 -85.8683 275° West 406 467 38,000  Level Chicago Center
10:52PM 42.2056 -86.0342 275° West 409 471 38,000  Level Chicago Center
10:53PM 42.2147 -86.1872 275° West 411 473 38,000  Level Chicago Center
10:54PM 42.2239 -86.3403 275° West 413 475 38,000  Level Chicago Center
10:55PM 42.2331 -86.4944 275° West 414 476 38,000  Level Chicago Center
10:56PM 42.2422 -86.6478 275° West 413 475 38,000  Level Chicago Center
10:57PM 42.2525 -86.8072 275° West 415 478 38,000  Level Chicago Center
10:58PM 42.2617 -86.9897 274° West 411 473 38,000  Level Chicago Center
10:59PM 42.2689 -87.1394 274° West 405 466 38,000  Level Chicago Center
11:00PM 42.2767 -87.2917 274° West 409 471 38,000  Level Chicago Center
11:01PM 42.2844 -87.4444 274° West 411 473 38,000  Level Chicago Center
11:02PM 42.2919 -87.5972 274° West 412 474 38,000  Level Chicago Center
11:03PM 42.2992 -87.7492 274° West 410 472 38,000  Level Chicago Center
11:04PM 42.3064 -87.9022 274° West 413 475 38,000  Level Chicago Center
11:05PM 42.3136 -88.0542 274° West 411 473 38,000  Level Chicago Center
11:06PM 42.3214 -88.2358 273° West 408 470 38,000  Level Chicago Center
11:07PM 42.3278 -88.3894 273° West 410 472 38,000  Level Chicago Center
11:08PM 42.3333 -88.5350 273° West 420 483 38,000  Level Chicago Center
11:09PM 42.3400 -88.6900 273° West 414 476 38,000  Level Chicago Center
11:11PM 42.3461 -88.8478 273° West 418 481 38,000  Level Chicago Center
11:12PM 42.3533 -89.0319 273° West 420 483 38,000  Level Chicago Center
11:13PM 42.3586 -89.1883 273° West 419 482 38,000  Level Chicago Center
11:14PM 42.3642 -89.3469 273° West 421 484 38,000  Level Chicago Center
11:15PM 42.3694 -89.5036 273° West 417 480 38,000  Level Chicago Center
11:16PM 42.3733 -89.6619 272° West 419 482 38,000  Level Chicago Center
11:17PM 42.3794 -89.8197 273° West 420 483 38,000  Level Chicago Center
11:18PM 42.3822 -89.9617 272° West 415 478 38,000  Level Chicago Center
11:19PM 42.3875 -90.1161 273° West 413 475 38,000  Level Chicago Center
11:20PM 42.3914 -90.2689 272° West 412 474 38,000  Level Chicago Center
11:21PM 42.3942 -90.4228 271° West 410 472 38,000  Level Chicago Center
11:22PM 42.4006 -90.6092 273° West 414 476 38,000  Level Chicago Center
11:23PM 42.3986 -90.7617 269° West 413 475 38,000  Level Chicago Center
11:24PM 42.3828 -90.9133 262° West 409 471 38,000  Level Chicago Center
11:25PM 42.3672 -91.0667 262° West 411 473 38,000  Level Chicago Center
11:26PM 42.3503 -91.2189 261° West 411 473 38,000  Level Chicago Center
11:27PM 42.3350 -91.3739 262° West 413 475 38,000  Level Chicago Center
11:28PM 42.3181 -91.5256 261° West 412 474 38,000  Level Chicago Center
11:29PM 42.3019 -91.6761 262° West 408 470 38,000  Level Chicago Center
11:30PM 42.2844 -91.8244 261° West 403 464 38,000  Level Chicago Center
11:31PM 42.2692 -91.9739 262° West 402 463 38,000  Level Chicago Center
11:32PM 42.2517 -92.1225 261° West 403 464 38,000  Level Chicago Center
11:32PM 42.2461 -92.1833 263° West 399 459 38,000  Level Minneapolis Center
11:33PM 42.2289 -92.3297 261° West 398 458 38,000  Level Minneapolis Center
11:34PM 42.2119 -92.4758 261° West 396 456 38,000  Level Minneapolis Center
11:35PM 42.1956 -92.6211 261° West 394 453 38,000  Level Minneapolis Center
11:36PM 42.1786 -92.7650 261° West 393 452 38,000  Level Minneapolis Center
11:37PM 42.1617 -92.9081 261° West 390 449 38,000  Level Minneapolis Center
11:38PM 42.1444 -93.0522 261° West 392 451 38,000  Level Minneapolis Center
11:39PM 42.1225 -93.2250 260° West 392 451 38,000  Level Minneapolis Center
11:40PM 42.1053 -93.3694 261° West 394 453 38,000  Level Minneapolis Center
11:41PM 42.0883 -93.5156 261° West 397 457 38,000  Level Minneapolis Center
11:42PM 42.0689 -93.6614 260° West 399 459 38,000  Level Minneapolis Center
11:44PM 42.0511 -93.8064 261° West 397 457 38,000  Level Minneapolis Center
11:45PM 42.0275 -93.9892 260° West 396 456 38,000  Level Minneapolis Center
11:46PM 42.0089 -94.1347 260° West 397 457 38,000  Level Minneapolis Center
11:47PM 41.9908 -94.2814 261° West 397 457 38,000  Level Minneapolis Center
11:48PM 41.9708 -94.4281 260° West 400 460 38,000  Level Minneapolis Center
11:49PM 41.9514 -94.5753 260° West 402 463 38,000  Level Minneapolis Center
11:50PM 41.9308 -94.7250 260° West 407 468 38,000  Level Minneapolis Center
11:51PM 41.9097 -94.8744 259° West 408 470 38,000  Level Minneapolis Center
11:52PM 41.8889 -95.0242 259° West 407 468 38,000  Level Minneapolis Center
11:53PM 41.8692 -95.1758 260° West 413 475 38,000  Level Minneapolis Center
11:54PM 41.8431 -95.3569 259° West 413 475 38,000  Level Minneapolis Center
11:55PM 41.8219 -95.5075 259° West 414 476 38,000  Level Minneapolis Center
11:56PM 41.8000 -95.6586 259° West 415 478 38,000  Level Minneapolis Center
11:57PM 41.7781 -95.8086 259° West 414 476 38,000  Level Minneapolis Center
11:58PM 41.7561 -95.9581 259° West 412 474 38,000  Level Minneapolis Center
11:59PM 41.7336 -96.1092 259° West 418 481 38,000  Level Minneapolis Center
12:00AM 41.7114 -96.2592 259° West 415 478 38,000  Level Minneapolis Center
12:01AM 41.6878 -96.4103 258° West 418 481 38,000  Level Minneapolis Center
12:02AM 41.6653 -96.5600 259° West 415 478 38,000  Level Minneapolis Center
12:03AM 41.6431 -96.7097 259° West 413 475 38,000  Level Minneapolis Center
12:04AM 41.6183 -96.8589 258° West 413 475 38,000  Level Minneapolis Center
12:05AM 41.5911 -97.0397 259° West 415 478 38,000  Level Minneapolis Center
12:06AM 41.5664 -97.1897 258° West 415 478 38,000  Level Minneapolis Center
12:07AM 41.5433 -97.3389 258° West 413 475 38,000  Level Minneapolis Center
12:08AM 41.5197 -97.4847 258° West 406 467 38,000  Level Minneapolis Center
12:09AM 41.4950 -97.6331 258° West 407 468 38,000  Level Minneapolis Center
12:10AM 41.4711 -97.7800 258° West 407 468 38,000  Level Minneapolis Center
12:11AM 41.4469 -97.9261 258° West 405 466 38,000  Level Minneapolis Center
12:12AM 41.4233 -98.0703 258° West 401 461 38,000  Level Minneapolis Center
12:13AM 41.3997 -98.2069 257° West 399 459 38,000  Level Minneapolis Center
12:14AM 41.3736 -98.3497 256° West 399 459 38,000  Level Minneapolis Center
12:15AM 41.3106 -98.4825 238° Southwest 406 467 38,000  Level Minneapolis Center
12:16AM 41.2478 -98.6067 236° Southwest 407 468 38,000  Level Minneapolis Center
12:17AM 41.1856 -98.7300 236° Southwest 405 466 38,000  Level Minneapolis Center
12:18AM 41.1228 -98.8514 236° Southwest 401 461 38,000  Level Minneapolis Center
12:19AM 41.0611 -98.9703 236° Southwest 396 456 38,000  Level Minneapolis Center
12:20AM 41.0000 -99.0903 236° Southwest 394 453 38,000  Level Minneapolis Center
12:21AM 40.9350 -99.2161 236° Southwest 391 450 38,000  Level Minneapolis Center
12:21AM 40.9103 -99.2650 236° Southwest 393 452 38,000 360 Level Denver Center
12:22AM 40.8478 -99.3839 235° Southwest 394 453 38,500 480 Climbing Denver Center
12:23AM 40.7842 -99.5058 235° Southwest 402 463 39,000 480 Climbing Denver Center
12:24AM 40.7169 -99.6300 234° Southwest 415 478 39,500 480 Climbing Denver Center
12:25AM 40.6511 -99.7578 236° Southwest 420 483 40,000 180 Climbing Denver Center
12:27AM 40.5661 -99.9200 235° Southwest 425 489 40,000  Level Denver Center
12:28AM 40.5011 -100.0397 234° Southwest 420 483 40,000  Level Denver Center
12:29AM 40.4369 -100.1603 235° Southwest 418 481 40,000  Level Denver Center
12:30AM 40.3636 -100.2989 235° Southwest 413 475 40,000  Level Denver Center
12:31AM 40.3000 -100.4167 235° Southwest 411 473 40,000  Level Denver Center
12:32AM 40.2356 -100.5364 235° Southwest 416 479 40,000  Level Denver Center
12:33AM 40.1672 -100.6769 238° Southwest 408 470 40,000  Level Denver Center
12:34AM 40.1136 -100.7992 240° Southwest 405 466 40,000  Level Denver Center
12:35AM 40.0597 -100.9203 240° Southwest 403 464 40,000  Level Denver Center
12:36AM 39.9967 -101.0628 240° Southwest 404 465 40,000  Level Denver Center
12:37AM 39.9519 -101.1642 240° Southwest 403 464 40,000  Level Denver Center
12:38AM 39.8886 -101.3064 240° Southwest 405 466 40,000  Level Denver Center
12:39AM 39.8256 -101.4494 240° Southwest 406 467 40,000  Level Denver Center
12:40AM 39.7711 -101.5708 240° Southwest 407 468 40,000  Level Denver Center
12:41AM 39.7172 -101.6911 240° Southwest 402 463 40,000  Level Denver Center
12:42AM 39.6531 -101.8319 239° Southwest 406 467 40,000  Level Denver Center
12:43AM 39.5992 -101.9517 240° Southwest 404 465 40,000  Level Denver Center
12:44AM 39.5456 -102.0717 240° Southwest 402 463 40,000  Level Denver Center
12:45AM 39.4814 -102.2086 239° Southwest 399 459 40,000  Level Denver Center
12:46AM 39.4269 -102.3264 239° Southwest 399 459 40,000  Level Denver Center
12:47AM 39.3694 -102.4508 239° Southwest 389 448 40,000  Level Denver Center
12:48AM 39.3122 -102.5706 238° Southwest 395 455 40,000  Level Denver Center
12:49AM 39.2592 -102.6861 239° Southwest 395 455 40,000  Level Denver Center
12:50AM 39.1994 -102.8156 239° Southwest 384 442 40,000  Level Denver Center
12:51AM 39.1403 -102.9353 238° Southwest 392 451 40,000  Level Denver Center
12:52AM 39.0736 -103.0497 233° Southwest 395 455 40,000  Level Denver Center
12:53AM 39.0072 -103.1656 234° Southwest 397 457 40,000  Level Denver Center
12:54AM 38.9411 -103.2794 233° Southwest 395 455 40,000  Level Denver Center
12:55AM 38.8733 -103.3950 233° Southwest 399 459 40,000  Level Denver Center
12:56AM 38.8058 -103.5114 233° Southwest 395 455 40,000  Level Denver Center
12:57AM 38.7419 -103.6169 232° Southwest 391 450 40,000  Level Denver Center
12:58AM 38.6792 -103.7247 233° Southwest 394 453 40,000  Level Denver Center
12:59AM 38.6053 -103.8514 233° Southwest 397 457 40,000  Level Denver Center
01:00AM 38.5403 -103.9606 233° Southwest 402 463 40,000  Level Denver Center
01:01AM 38.4758 -104.0681 233° Southwest 398 458 40,000  Level Denver Center
01:02AM 38.4008 -104.1944 233° Southwest 403 464 40,000  Level Denver Center
01:03AM 38.3322 -104.3089 233° Southwest 403 464 40,000  Level Denver Center
01:04AM 38.2708 -104.4111 233° Southwest 401 461 40,000  Level Denver Center
01:05AM 38.1942 -104.5367 232° Southwest 403 464 40,000  Level Denver Center
01:06AM 38.1306 -104.6436 233° Southwest 400 460 40,000  Level Denver Center
01:07AM 38.0644 -104.7519 232° Southwest 405 466 40,000  Level Denver Center
01:08AM 37.9872 -104.8769 232° Southwest 404 465 40,000  Level Denver Center
01:09AM 37.9228 -104.9850 233° Southwest 404 465 40,000  Level Denver Center
01:10AM 37.8561 -105.0919 232° Southwest 405 466 40,000  Level Denver Center
01:11AM 37.7792 -105.2167 232° Southwest 403 464 40,000  Level Denver Center
01:12AM 37.7139 -105.3236 232° Southwest 402 463 40,000  Level Denver Center
01:13AM 37.6486 -105.4289 232° Southwest 400 460 40,000  Level Denver Center
01:14AM 37.5692 -105.5519 231° Southwest 406 467 40,000  Level Denver Center
01:15AM 37.5078 -105.6533 233° Southwest 402 463 40,000  Level Denver Center
01:16AM 37.4306 -105.7764 232° Southwest 404 465 40,000  Level Denver Center
01:17AM 37.3631 -105.8819 231° Southwest 404 465 40,000  Level Denver Center
01:18AM 37.2956 -105.9894 232° Southwest 409 471 40,000  Level Denver Center
01:19AM 37.2283 -106.0972 232° Southwest 411 473 40,000  Level Denver Center
01:20AM 37.1472 -106.2225 231° Southwest 414 476 40,000  Level Denver Center
01:21AM 37.0783 -106.3322 232° Southwest 419 482 40,000  Level Denver Center
01:22AM 37.0081 -106.4414 231° Southwest 421 484 40,000  Level Denver Center
01:23AM 36.9283 -106.5683 232° Southwest 416 479 40,000  Level Denver Center
01:24AM 36.8578 -106.6753 231° Southwest 416 479 40,000  Level Denver Center
01:25AM 36.7886 -106.7842 232° Southwest 419 482 40,000  Level Denver Center
01:26AM 36.7072 -106.9097 231° Southwest 419 482 40,000  Level Denver Center
01:27AM 36.6375 -107.0183 231° Southwest 419 482 40,000  Level Denver Center
01:28AM 36.5661 -107.1269 231° Southwest 422 486 40,000  Level Denver Center
01:29AM 36.4942 -107.2353 230° Southwest 423 487 40,000  Level Denver Center
01:30AM 36.4114 -107.3628 231° Southwest 424 488 40,000  Level Denver Center
01:31AM 36.3383 -107.4731 231° Southwest 429 494 40,000  Level Denver Center
01:32AM 36.3136 -107.5106 231° Southwest 430 495 40,000  Level Albuquerque Center
01:33AM 36.2428 -107.6197 231° Southwest 428 493 40,000  Level Albuquerque Center
01:34AM 36.1572 -107.7472 230° Southwest 428 493 40,000  Level Albuquerque Center
01:35AM 36.0853 -107.8547 230° Southwest 426 490 40,000  Level Albuquerque Center
01:36AM 36.0147 -107.9664 232° Southwest 428 493 40,000  Level Albuquerque Center
01:37AM 35.9369 -108.1022 235° Southwest 431 496 40,000  Level Albuquerque Center
01:38AM 35.8664 -108.2164 233° Southwest 433 498 40,000  Level Albuquerque Center
01:39AM 35.7944 -108.3289 232° Southwest 434 499 40,000  Level Albuquerque Center
01:40AM 35.7231 -108.4436 233° Southwest 436 502 40,000  Level Albuquerque Center
01:41AM 35.6389 -108.5761 232° Southwest 437 503 40,000  Level Albuquerque Center
01:42AM 35.5658 -108.6906 232° Southwest 439 505 40,000  Level Albuquerque Center
01:43AM 35.4936 -108.8044 232° Southwest 440 506 40,000  Level Albuquerque Center
01:44AM 35.4103 -108.9364 232° Southwest 438 504 40,000  Level Albuquerque Center
01:45AM 35.3375 -109.0497 232° Southwest 439 505 40,000  Level Albuquerque Center
01:46AM 35.2642 -109.1633 232° Southwest 440 506 40,000  Level Albuquerque Center
01:47AM 35.1917 -109.2756 232° Southwest 439 505 40,000  Level Albuquerque Center
01:48AM 35.1072 -109.4075 232° Southwest 441 507 40,000  Level Albuquerque Center
01:49AM 35.0314 -109.5153 229° Southwest 438 504 40,000  Level Albuquerque Center
01:50AM 34.9592 -109.6300 232° Southwest 441 507 40,000  Level Albuquerque Center
01:51AM 34.8728 -109.7608 231° Southwest 443 510 40,000  Level Albuquerque Center
01:52AM 34.7975 -109.8733 231° Southwest 446 513 40,000  Level Albuquerque Center
01:53AM 34.7231 -109.9894 232° Southwest 451 519 40,000  Level Albuquerque Center
01:54AM 34.6417 -110.1325 235° Southwest 461 531 40,000 -180 Level Albuquerque Center
01:55AM 34.5747 -110.2539 236° Southwest 454 522 39,700 -1,440 Descending Albuquerque Center
01:56AM 34.5003 -110.3633 230° Southwest 444 511 37,200 -2,880 Descending Albuquerque Center
01:57AM 34.4325 -110.4886 237° Southwest 459 528 33,900 -3,480 Descending Albuquerque Center
01:58AM 34.3589 -110.6172 235° Southwest 465 535 30,200 -3,540 Descending Albuquerque Center
01:59AM 34.2792 -110.7422 232° Southwest 468 539 26,800 -3,240 Descending Albuquerque Center
02:00AM 34.2022 -110.8672 233° Southwest 467 537 23,700 -3,000 Descending Albuquerque Center
02:01AM 34.1322 -110.9869 235° Southwest 449 517 20,800 -2,880 Descending Albuquerque Center
02:02AM 34.0642 -111.1003 234° Southwest 426 490 17,900 -2,880 Descending Albuquerque Center
02:03AM 33.9989 -111.2089 234° Southwest 409 471 15,100 -2,460 Descending Albuquerque Center
02:04AM 33.9367 -111.3114 234° Southwest 383 441 13,000 -1,440 Descending Albuquerque Center
02:05AM 33.8817 -111.4019 234° Southwest 334 384 12,300 -1,020 Descending Albuquerque Center
02:06AM 33.8133 -111.4636 217° Southwest 306 352 11,000 -1,260 Descending Albuquerque Center
02:07AM 33.7469 -111.5219 216° Southwest 295 339 9,800 -1,440 Descending Albuquerque Center
02:08AM 33.6703 -111.5933 218° Southwest 290 334 8,100 -1,440 Descending Albuquerque Center
02:09AM 33.6081 -111.6508 218° Southwest 282 325 7,000 -1,260 Descending Albuquerque Center
02:10AM 33.5447 -111.7081 217° Southwest 284 327 5,600 -1,380 Descending Albuquerque Center
02:11AM 33.4844 -111.7642 218° Southwest 276 318 4,300 -840 Descending Albuquerque Center
02:12AM 33.4317 -111.8156 219° Southwest 244 281 4,000 -660 Descending Albuquerque Center
02:13AM 33.4314 -111.8811 270° West 195 224 3,000 -900 Descending Albuquerque Center
02:14AM 33.4317 -111.9331 270° West 160 184 2,200 -780 Descending Albuquerque Center
02:15AM 33.4311 -111.9772 269° West 135 155 1,500 -600 Descending Albuquerque Center
02:16AM 33.4297 -112.0244 268° West 140 161 1,100 -420 Descending Albuquerque Center
02:18AM 33.4343 -112.0116 90° East  Level Estimated